createdAt,value
2022-07-28T00:00:23.459Z,1.80
2022-07-28T00:01:25.752Z,1.90
2022-07-28T00:02:29.122Z,1.83
2022-07-28T00:03:31.647Z,1.90
2022-07-28T00:04:35.240Z,1.88
2022-07-28T00:05:37.441Z,2.00
2022-07-28T00:06:40.567Z,2.00
2022-07-28T00:07:42.705Z,1.70
2022-07-28T00:08:45.830Z,2.10
2022-07-28T00:09:47.997Z,2.10
2022-07-28T00:10:51.178Z,2.10
2022-07-28T00:11:54.922Z,2.00
2022-07-28T00:12:59.763Z,1.73
2022-07-28T00:14:01.929Z,2.20
2022-07-28T00:15:07.533Z,2.00
2022-07-28T00:16:09.988Z,1.95
2022-07-28T00:17:13.174Z,2.03
2022-07-28T00:18:15.318Z,2.10
2022-07-28T00:19:18.560Z,2.47
2022-07-28T00:20:21.406Z,1.88
2022-07-28T00:21:25.081Z,2.28
2022-07-28T00:22:27.282Z,2.78
2022-07-28T00:23:38.970Z,2.28
2022-07-28T00:24:41.996Z,2.20
2022-07-28T00:25:45.156Z,2.38
2022-07-28T00:26:47.396Z,2.08
2022-07-28T00:27:50.562Z,2.60
2022-07-28T00:28:52.746Z,2.15
2022-07-28T00:29:55.913Z,2.03
2022-07-28T00:31:05.584Z,2.80
2022-07-28T00:32:12.009Z,2.20
2022-07-28T00:33:14.467Z,2.47
2022-07-28T00:34:18.124Z,2.15
2022-07-28T00:35:30.387Z,2.58
2022-07-28T00:36:34.863Z,2.83
2022-07-28T00:37:39.676Z,2.80
2022-07-28T00:38:43.885Z,2.67
2022-07-28T00:39:46.547Z,2.70
2022-07-28T00:41:07.776Z,2.55
2022-07-28T00:42:12.272Z,2.42
2022-07-28T00:43:14.479Z,2.90
2022-07-28T00:44:18.201Z,2.50
2022-07-28T00:45:20.307Z,2.88
2022-07-28T00:46:25.244Z,2.47
2022-07-28T00:47:27.451Z,2.60
2022-07-28T00:48:39.099Z,2.53
2022-07-28T00:49:41.464Z,2.58
2022-07-28T00:50:45.805Z,2.40
2022-07-28T00:51:49.605Z,2.75
2022-07-28T00:52:52.097Z,2.70
2022-07-28T00:53:55.952Z,2.55
2022-07-28T00:54:58.923Z,2.50
2022-07-28T00:56:05.353Z,2.17
2022-07-28T00:57:09.684Z,2.50
2022-07-28T00:58:11.852Z,2.67
2022-07-28T00:59:15.006Z,2.10
2022-07-28T01:00:17.554Z,2.22
2022-07-28T01:01:21.502Z,2.50
2022-07-28T01:02:25.290Z,2.67
2022-07-28T01:03:29.352Z,2.30
2022-07-28T01:04:33.371Z,2.10
2022-07-28T01:05:44.457Z,2.70
2022-07-28T01:06:59.651Z,2.70
2022-07-28T01:08:08.066Z,2.85
2022-07-28T01:09:20.760Z,2.53
2022-07-28T01:10:34.058Z,2.30
2022-07-28T01:11:48.004Z,2.85
2022-07-28T01:12:58.674Z,2.65
2022-07-28T01:14:10.939Z,2.47
2022-07-28T01:15:20.415Z,2.67
2022-07-28T01:16:23.832Z,2.60
2022-07-28T01:17:37.178Z,2.60
2022-07-28T01:18:43.373Z,2.65
2022-07-28T01:19:51.760Z,2.40
2022-07-28T01:21:00.111Z,2.67
2022-07-28T01:22:05.402Z,2.40
2022-07-28T01:23:38.314Z,2.42
2022-07-28T01:24:52.766Z,2.60
2022-07-28T01:26:12.166Z,2.33
2022-07-28T01:27:37.051Z,2.65
2022-07-28T01:28:52.673Z,2.97
2022-07-28T01:30:05.264Z,2.38
2022-07-28T01:31:13.340Z,2.75
2022-07-28T01:32:21.935Z,2.60
2022-07-28T01:33:32.442Z,2.40
2022-07-28T01:34:41.337Z,2.35
2022-07-28T01:35:48.725Z,2.88
2022-07-28T01:36:55.197Z,2.53
2022-07-28T01:38:02.078Z,2.28
2022-07-28T01:39:04.297Z,2.67
2022-07-28T01:40:10.461Z,2.50
2022-07-28T01:41:19.225Z,2.55
2022-07-28T01:42:24.146Z,2.72
2022-07-28T01:43:29.820Z,2.55
2022-07-28T01:44:35.340Z,2.47
2022-07-28T01:45:41.205Z,2.67
2022-07-28T01:46:46.780Z,2.40
2022-07-28T01:47:51.880Z,2.53
2022-07-28T01:48:55.813Z,2.03
2022-07-28T01:50:02.785Z,2.30
2022-07-28T01:51:08.616Z,2.60
2022-07-28T01:52:10.802Z,2.75
2022-07-28T01:53:17.203Z,2.40
2022-07-28T01:54:23.099Z,2.70
2022-07-28T01:55:27.367Z,2.05
2022-07-28T01:56:32.779Z,2.40
2022-07-28T01:57:38.276Z,3.05
2022-07-28T01:58:43.431Z,2.70
2022-07-28T01:59:47.507Z,2.85
2022-07-28T02:00:52.365Z,2.42
2022-07-28T02:01:58.797Z,2.50
2022-07-28T02:03:03.815Z,2.45
2022-07-28T02:04:08.594Z,2.53
2022-07-28T02:05:13.928Z,2.42
2022-07-28T02:06:19.961Z,2.00
2022-07-28T02:07:25.226Z,2.33
2022-07-28T02:08:29.664Z,2.92
2022-07-28T02:09:33.560Z,2.53
2022-07-28T02:10:37.301Z,2.40
2022-07-28T02:11:42.401Z,2.00
2022-07-28T02:12:46.714Z,2.17
2022-07-28T02:13:51.283Z,2.60
2022-07-28T02:14:54.956Z,2.55
2022-07-28T02:15:58.295Z,2.67
2022-07-28T02:17:07.868Z,2.53
2022-07-28T02:18:12.691Z,2.83
2022-07-28T02:19:18.453Z,2.70
2022-07-28T02:20:23.744Z,2.42
2022-07-28T02:21:27.427Z,2.50
2022-07-28T02:22:31.992Z,2.58
2022-07-28T02:23:35.107Z,2.45
2022-07-28T02:24:39.446Z,2.20
2022-07-28T02:25:42.223Z,2.65
2022-07-28T02:26:49.798Z,2.60
2022-07-28T02:27:58.703Z,2.28
2022-07-28T02:29:04.690Z,2.80
2022-07-28T02:30:11.655Z,2.50
2022-07-28T02:31:21.214Z,2.65
2022-07-28T02:32:29.515Z,2.53
2022-07-28T02:33:58.534Z,2.50
2022-07-28T02:35:04.810Z,2.30
2022-07-28T02:36:12.575Z,2.40
2022-07-28T02:37:19.493Z,2.55
2022-07-28T02:38:27.173Z,2.25
2022-07-28T02:39:36.527Z,2.70
2022-07-28T02:40:42.279Z,2.50
2022-07-28T02:41:44.623Z,2.90
2022-07-28T02:42:50.869Z,2.20
2022-07-28T02:43:56.879Z,2.53
2022-07-28T02:45:03.256Z,2.58
2022-07-28T02:46:11.701Z,2.42
2022-07-28T02:47:20.848Z,2.20
2022-07-28T02:48:27.696Z,2.50
2022-07-28T02:49:33.879Z,2.40
2022-07-28T02:50:40.958Z,2.40
2022-07-28T02:51:45.377Z,2.72
2022-07-28T02:52:50.203Z,2.60
2022-07-28T02:53:54.168Z,2.50
2022-07-28T02:54:59.867Z,2.75
2022-07-28T02:56:03.497Z,2.45
2022-07-28T02:57:08.020Z,2.60
2022-07-28T02:58:11.383Z,2.83
2022-07-28T02:59:16.046Z,2.45
2022-07-28T03:00:18.718Z,2.90
2022-07-28T03:01:23.004Z,2.53
2022-07-28T03:02:30.772Z,2.22
2022-07-28T03:03:34.938Z,3.05
2022-07-28T03:04:58.921Z,2.58
2022-07-28T03:06:02.819Z,3.03
2022-07-28T03:07:05.266Z,2.60
2022-07-28T03:08:08.779Z,2.83
2022-07-28T03:09:11.171Z,2.50
2022-07-28T03:10:33.621Z,2.63
2022-07-28T03:11:36.850Z,2.40
2022-07-28T03:12:39.984Z,2.88
2022-07-28T03:13:42.271Z,2.58
2022-07-28T03:14:45.425Z,2.28
2022-07-28T03:15:47.658Z,2.40
2022-07-28T03:16:55.400Z,2.90
2022-07-28T03:17:59.121Z,2.50
2022-07-28T03:19:02.851Z,2.47
2022-07-28T03:20:07.618Z,2.47
2022-07-28T03:21:09.699Z,2.63
2022-07-28T03:22:12.970Z,2.45
2022-07-28T03:23:17.359Z,2.50
2022-07-28T03:24:21.408Z,2.30
2022-07-28T03:25:28.029Z,2.38
2022-07-28T03:26:39.086Z,2.20
2022-07-28T03:27:46.898Z,2.25
2022-07-28T03:28:52.619Z,2.55
2022-07-28T03:30:03.610Z,2.17
2022-07-28T03:31:09.858Z,2.47
2022-07-28T03:32:13.826Z,2.58
2022-07-28T03:33:17.250Z,2.08
2022-07-28T03:34:21.123Z,2.40
2022-07-28T03:35:25.271Z,2.40
2022-07-28T03:36:40.870Z,2.10
2022-07-28T03:37:57.076Z,2.10
2022-07-28T03:39:02.573Z,2.40
2022-07-28T03:40:09.243Z,2.08
2022-07-28T03:41:13.597Z,2.60
2022-07-28T03:42:19.184Z,2.50
2022-07-28T03:43:25.002Z,2.25
2022-07-28T03:44:28.962Z,2.20
2022-07-28T03:45:32.899Z,2.08
2022-07-28T03:46:35.987Z,1.95
2022-07-28T03:47:39.181Z,2.28
2022-07-28T03:48:41.381Z,2.17
2022-07-28T03:49:48.338Z,2.40
2022-07-28T03:50:50.457Z,3.95
2022-07-28T03:51:53.577Z,2.08
2022-07-28T03:52:56.671Z,1.80
2022-07-28T03:53:59.797Z,2.20
2022-07-28T03:55:02.049Z,2.00
2022-07-28T03:56:06.677Z,2.20
2022-07-28T03:57:08.780Z,2.30
2022-07-28T03:58:11.926Z,2.30
2022-07-28T03:59:14.119Z,1.95
2022-07-28T04:00:18.610Z,2.33
2022-07-28T04:01:20.767Z,2.58
2022-07-28T04:02:24.017Z,2.30
2022-07-28T04:03:42.512Z,2.08
2022-07-28T04:04:48.849Z,2.10
2022-07-28T04:05:51.101Z,2.30
2022-07-28T04:06:54.279Z,2.08
2022-07-28T04:07:56.433Z,2.20
2022-07-28T04:08:59.659Z,2.15
2022-07-28T04:10:01.824Z,2.17
2022-07-28T04:11:05.616Z,2.15
2022-07-28T04:12:08.555Z,2.13
2022-07-28T04:13:12.430Z,2.15
2022-07-28T04:14:16.941Z,2.38
2022-07-28T04:15:20.583Z,2.20
2022-07-28T04:16:22.873Z,2.30
2022-07-28T04:17:26.075Z,2.17
2022-07-28T04:18:28.244Z,2.10
2022-07-28T04:19:31.361Z,1.95
2022-07-28T04:20:35.009Z,2.30
2022-07-28T04:21:38.242Z,2.20
2022-07-28T04:22:40.562Z,2.03
2022-07-28T04:23:43.721Z,1.95
2022-07-28T04:24:45.849Z,2.20
2022-07-28T04:25:49.437Z,1.75
2022-07-28T04:26:51.554Z,2.17
2022-07-28T04:27:57.035Z,2.17
2022-07-28T04:29:03.264Z,2.25
2022-07-28T04:30:09.034Z,1.70
2022-07-28T04:31:13.045Z,1.77
2022-07-28T04:32:17.945Z,1.90
2022-07-28T04:33:20.463Z,2.00
2022-07-28T04:34:24.643Z,1.88
2022-07-28T04:35:28.362Z,1.95
2022-07-28T04:36:32.924Z,2.05
2022-07-28T04:37:35.393Z,1.90
2022-07-28T04:38:38.653Z,2.55
2022-07-28T04:39:41.338Z,2.00
2022-07-28T04:40:44.714Z,2.20
2022-07-28T04:41:47.410Z,1.90
2022-07-28T04:42:51.532Z,2.30
2022-07-28T04:43:53.689Z,1.83
2022-07-28T04:44:56.923Z,2.20
2022-07-28T04:45:59.136Z,2.25
2022-07-28T04:47:02.232Z,2.95
2022-07-28T04:48:08.454Z,2.03
2022-07-28T04:49:11.735Z,1.70
2022-07-28T04:50:16.040Z,2.10
2022-07-28T04:51:23.315Z,2.15
2022-07-28T04:52:27.135Z,2.13
2022-07-28T04:53:30.765Z,2.17
2022-07-28T04:54:32.935Z,2.00
2022-07-28T04:55:38.737Z,1.67
2022-07-28T04:56:41.917Z,2.20
2022-07-28T04:57:44.348Z,1.80
2022-07-28T04:58:48.667Z,1.63
2022-07-28T04:59:51.339Z,2.08
2022-07-28T05:00:55.641Z,2.10
2022-07-28T05:01:58.628Z,1.90
2022-07-28T05:03:02.710Z,1.70
2022-07-28T05:04:05.171Z,1.70
2022-07-28T05:05:09.020Z,1.83
2022-07-28T05:06:11.327Z,1.95
2022-07-28T05:07:14.459Z,1.90
2022-07-28T05:08:18.220Z,1.70
2022-07-28T05:09:21.865Z,1.83
2022-07-28T05:10:24.185Z,1.80
2022-07-28T05:11:27.329Z,2.00
2022-07-28T05:12:29.613Z,1.60
2022-07-28T05:13:34.438Z,1.80
2022-07-28T05:14:36.743Z,1.70
2022-07-28T05:15:39.886Z,1.75
2022-07-28T05:16:42.091Z,1.83
2022-07-28T05:17:45.942Z,1.65
2022-07-28T05:18:48.149Z,1.77
2022-07-28T05:19:51.420Z,2.00
2022-07-28T05:20:54.533Z,2.00
2022-07-28T05:21:56.661Z,1.90
2022-07-28T05:22:59.902Z,1.77
2022-07-28T05:24:03.728Z,1.90
2022-07-28T05:25:14.437Z,1.85
2022-07-28T05:27:19.532Z,1.55
2022-07-28T05:28:21.675Z,1.63
2022-07-28T05:29:25.589Z,1.58
2022-07-28T05:30:40.839Z,1.63
2022-07-28T05:31:42.992Z,1.70
2022-07-28T05:32:46.382Z,1.80
2022-07-28T05:33:48.486Z,1.75
2022-07-28T05:34:52.118Z,1.63
2022-07-28T05:35:57.534Z,1.63
2022-07-28T05:37:02.308Z,1.70
2022-07-28T05:38:08.916Z,1.60
2022-07-28T05:39:16.221Z,1.38
2022-07-28T05:40:18.456Z,1.45
2022-07-28T05:41:22.054Z,1.60
2022-07-28T05:42:26.548Z,1.30
2022-07-28T05:43:29.680Z,1.40
2022-07-28T05:44:37.656Z,1.70
2022-07-28T05:45:41.588Z,1.50
2022-07-28T05:46:43.782Z,1.75
2022-07-28T05:47:48.121Z,1.63
2022-07-28T05:48:51.833Z,1.50
2022-07-28T05:49:55.089Z,1.80
2022-07-28T05:50:58.311Z,1.98
2022-07-28T05:52:00.401Z,1.52
2022-07-28T05:53:03.602Z,1.40
2022-07-28T05:54:06.055Z,1.67
2022-07-28T05:55:11.312Z,1.65
2022-07-28T05:56:14.441Z,1.52
2022-07-28T05:57:16.578Z,2.00
2022-07-28T05:58:22.680Z,1.75
2022-07-28T05:59:24.802Z,2.25
2022-07-28T06:00:28.439Z,1.77
2022-07-28T06:01:36.421Z,1.77
2022-07-28T06:02:39.905Z,1.70
2022-07-28T06:03:42.750Z,2.05
2022-07-28T06:04:46.436Z,1.90
2022-07-28T06:06:14.263Z,2.10
2022-07-28T06:07:13.767Z,1.48
2022-07-28T06:08:15.868Z,1.77
2022-07-28T06:09:19.008Z,1.70
2022-07-28T06:10:26.393Z,1.92
2022-07-28T06:11:29.532Z,1.60
2022-07-28T06:12:31.669Z,1.67
2022-07-28T06:13:34.869Z,1.55
2022-07-28T06:14:38.025Z,1.58
2022-07-28T06:15:40.219Z,1.63
2022-07-28T06:16:43.642Z,1.55
2022-07-28T06:17:45.862Z,1.63
2022-07-28T06:18:49.191Z,1.38
2022-07-28T06:19:52.298Z,1.58
2022-07-28T06:20:54.386Z,1.30
2022-07-28T06:21:57.620Z,1.40
2022-07-28T06:22:59.867Z,1.60
2022-07-28T06:24:03.032Z,1.70
2022-07-28T06:25:05.782Z,1.38
2022-07-28T06:26:10.282Z,1.30
2022-07-28T06:27:13.481Z,1.63
2022-07-28T06:28:16.642Z,1.38
2022-07-28T06:29:19.002Z,1.58
2022-07-28T06:30:22.560Z,1.35
2022-07-28T06:31:25.765Z,1.30
2022-07-28T06:32:28.971Z,1.20
2022-07-28T06:33:31.148Z,1.67
2022-07-28T06:34:34.229Z,1.30
2022-07-28T06:35:46.689Z,1.55
2022-07-28T06:36:54.340Z,1.40
2022-07-28T06:37:56.530Z,1.40
2022-07-28T06:38:59.702Z,1.40
2022-07-28T06:40:02.177Z,1.48
2022-07-28T06:41:05.500Z,1.60
2022-07-28T06:42:10.074Z,1.27
2022-07-28T06:43:14.525Z,1.15
2022-07-28T06:44:17.994Z,1.20
2022-07-28T06:45:21.834Z,1.50
2022-07-28T06:46:25.291Z,1.33
2022-07-28T06:47:27.503Z,1.00
2022-07-28T06:48:34.052Z,1.05
2022-07-28T06:49:36.253Z,1.40
2022-07-28T06:50:39.751Z,1.05
2022-07-28T06:51:42.965Z,1.05
2022-07-28T06:52:46.207Z,1.17
2022-07-28T06:53:48.931Z,0.98
2022-07-28T06:54:58.119Z,1.20
2022-07-28T06:56:00.620Z,1.20
2022-07-28T06:57:04.263Z,1.40
2022-07-28T06:58:07.953Z,1.42
2022-07-28T06:59:11.271Z,1.02
2022-07-28T07:00:14.317Z,0.95
2022-07-28T07:01:18.060Z,1.40
2022-07-28T07:02:23.889Z,1.20
2022-07-28T07:03:30.921Z,1.13
2022-07-28T07:04:33.981Z,1.00
2022-07-28T07:05:39.011Z,1.10
2022-07-28T07:06:42.195Z,1.13
2022-07-28T07:07:44.413Z,1.10
2022-07-28T07:08:50.754Z,1.10
2022-07-28T07:09:53.280Z,1.17
2022-07-28T07:10:56.930Z,1.50
2022-07-28T07:12:00.029Z,1.23
2022-07-28T07:13:04.251Z,0.90
2022-07-28T07:14:09.283Z,1.20
2022-07-28T07:15:12.165Z,1.13
2022-07-28T07:16:15.542Z,1.10
2022-07-28T07:17:18.111Z,1.30
2022-07-28T07:18:21.349Z,1.00
2022-07-28T07:19:23.511Z,1.40
2022-07-28T07:20:26.637Z,1.00
2022-07-28T07:21:29.786Z,1.08
2022-07-28T07:22:31.992Z,1.20
2022-07-28T07:23:35.966Z,1.30
2022-07-28T07:24:39.997Z,1.20
2022-07-28T07:25:43.422Z,1.40
2022-07-28T07:26:45.569Z,1.00
2022-07-28T07:27:49.125Z,0.95
2022-07-28T07:28:54.771Z,2.50
2022-07-28T07:29:58.342Z,1.40
2022-07-28T07:31:02.765Z,1.10
2022-07-28T07:32:10.410Z,0.90
2022-07-28T07:33:13.984Z,1.30
2022-07-28T07:34:16.718Z,1.40
2022-07-28T07:35:20.300Z,1.42
2022-07-28T07:36:23.124Z,1.48
2022-07-28T07:37:26.937Z,1.20
2022-07-28T07:38:36.829Z,1.25
2022-07-28T07:39:44.264Z,1.00
2022-07-28T07:40:46.423Z,1.55
2022-07-28T07:41:49.560Z,1.05
2022-07-28T07:42:52.520Z,1.10
2022-07-28T07:43:57.012Z,2.28
2022-07-28T07:45:01.685Z,1.90
2022-07-28T07:46:05.055Z,1.20
2022-07-28T07:47:09.497Z,1.20
2022-07-28T07:48:12.838Z,1.00
2022-07-28T07:49:17.139Z,1.10
2022-07-28T07:50:20.373Z,1.27
2022-07-28T07:51:23.610Z,1.20
2022-07-28T07:52:25.928Z,0.82
2022-07-28T07:53:29.167Z,1.23
2022-07-28T07:54:31.513Z,1.20
2022-07-28T07:55:37.759Z,0.90
2022-07-28T07:56:41.180Z,0.95
2022-07-28T07:57:44.402Z,1.33
2022-07-28T07:58:46.675Z,0.90
2022-07-28T07:59:50.377Z,1.73
2022-07-28T08:00:54.978Z,2.15
2022-07-28T08:01:57.385Z,1.40
2022-07-28T08:03:01.442Z,1.40
2022-07-28T08:04:03.869Z,1.25
2022-07-28T08:05:08.613Z,1.20
2022-07-28T08:06:13.493Z,1.40
2022-07-28T08:07:18.975Z,1.30
2022-07-28T08:08:25.606Z,1.23
2022-07-28T08:09:27.786Z,1.00
2022-07-28T08:10:30.925Z,1.30
2022-07-28T08:11:33.083Z,1.08
2022-07-28T08:12:36.501Z,1.27
2022-07-28T08:13:38.659Z,1.20
2022-07-28T08:14:41.935Z,1.27
2022-07-28T08:15:51.621Z,1.27
2022-07-28T08:16:56.814Z,0.98
2022-07-28T08:18:00.339Z,1.10
2022-07-28T08:19:02.871Z,1.10
2022-07-28T08:20:06.868Z,1.30
2022-07-28T08:21:09.040Z,1.13
2022-07-28T08:22:12.162Z,1.30
2022-07-28T08:23:16.282Z,1.10
2022-07-28T08:24:32.370Z,0.98
2022-07-28T08:25:38.148Z,1.30
2022-07-28T08:26:40.659Z,1.20
2022-07-28T08:27:43.995Z,1.05
2022-07-28T08:28:47.462Z,1.00
2022-07-28T08:29:49.679Z,1.20
2022-07-28T08:30:52.912Z,1.23
2022-07-28T08:31:56.606Z,1.30
2022-07-28T08:32:59.838Z,1.10
2022-07-28T08:34:03.840Z,1.08
2022-07-28T08:35:35.861Z,0.93
2022-07-28T08:36:39.341Z,1.02
2022-07-28T08:37:41.501Z,1.25
2022-07-28T08:38:44.736Z,1.13
2022-07-28T08:39:47.885Z,1.42
2022-07-28T08:40:51.907Z,0.98
2022-07-28T08:42:00.191Z,0.88
2022-07-28T08:43:10.460Z,1.10
2022-07-28T08:44:16.654Z,1.13
2022-07-28T08:45:21.747Z,1.10
2022-07-28T08:46:26.784Z,1.20
2022-07-28T08:47:40.575Z,1.00
2022-07-28T08:48:52.033Z,1.15
2022-07-28T08:49:54.946Z,0.80
2022-07-28T08:51:01.647Z,1.00
2022-07-28T08:52:05.176Z,0.82
2022-07-28T08:53:08.221Z,0.90
2022-07-28T08:54:17.457Z,0.90
2022-07-28T08:55:24.578Z,0.98
2022-07-28T08:56:39.437Z,1.30
2022-07-28T08:57:54.490Z,1.20
2022-07-28T08:59:03.854Z,1.17
2022-07-28T09:00:07.382Z,1.10
2022-07-28T09:01:11.212Z,0.90
2022-07-28T09:02:15.932Z,1.15
2022-07-28T09:03:21.077Z,0.98
2022-07-28T09:04:24.623Z,1.52
2022-07-28T09:05:27.556Z,1.02
2022-07-28T09:06:31.440Z,1.15
2022-07-28T09:07:34.759Z,1.08
2022-07-28T09:08:38.548Z,0.90
2022-07-28T09:09:40.804Z,0.90
2022-07-28T09:10:43.932Z,1.00
2022-07-28T09:11:46.039Z,1.10
2022-07-28T09:12:49.261Z,1.10
2022-07-28T09:13:54.037Z,1.38
2022-07-28T09:14:57.483Z,1.00
2022-07-28T09:16:00.212Z,1.10
2022-07-28T09:17:05.240Z,1.20
2022-07-28T09:18:08.042Z,0.90
2022-07-28T09:19:12.656Z,1.17
2022-07-28T09:20:17.513Z,1.13
2022-07-28T09:21:20.101Z,1.00
2022-07-28T09:22:23.441Z,1.08
2022-07-28T09:23:43.376Z,1.33
2022-07-28T09:26:10.216Z,1.00
2022-07-28T09:27:16.403Z,0.95
2022-07-28T09:28:20.405Z,1.27
2022-07-28T09:29:24.979Z,1.30
2022-07-28T09:30:32.811Z,1.23
2022-07-28T09:31:35.047Z,0.95
2022-07-28T09:32:39.128Z,0.90
2022-07-28T09:33:53.460Z,1.08
2022-07-28T09:34:58.244Z,0.90
2022-07-28T09:36:00.789Z,2.97
2022-07-28T09:37:05.907Z,2.92
2022-07-28T09:38:08.103Z,1.02
2022-07-28T09:39:11.287Z,1.38
2022-07-28T09:40:14.589Z,1.00
2022-07-28T09:41:21.810Z,1.05
2022-07-28T09:42:25.879Z,1.00
2022-07-28T09:43:35.372Z,1.05
2022-07-28T09:44:38.541Z,1.20
2022-07-28T09:45:40.685Z,1.20
2022-07-28T09:46:43.987Z,1.10
2022-07-28T09:47:46.568Z,1.00
2022-07-28T09:48:55.808Z,1.00
2022-07-28T09:50:01.044Z,0.90
2022-07-28T09:51:13.812Z,1.13
2022-07-28T09:52:28.411Z,0.90
2022-07-28T09:53:30.567Z,1.00
2022-07-28T09:54:38.734Z,0.90
2022-07-28T09:55:54.818Z,1.13
2022-07-28T09:56:58.020Z,1.27
2022-07-28T09:58:09.325Z,0.85
2022-07-28T09:59:14.582Z,1.10
2022-07-28T10:00:27.909Z,1.08
2022-07-28T10:01:35.800Z,0.80
2022-07-28T10:02:39.998Z,2.00
2022-07-28T10:03:44.357Z,1.42
2022-07-28T10:04:51.735Z,1.30
2022-07-28T10:05:58.994Z,0.80
2022-07-28T10:07:03.537Z,1.20
2022-07-28T10:08:06.534Z,0.90
2022-07-28T10:09:14.398Z,1.10
2022-07-28T10:10:21.235Z,0.93
2022-07-28T10:11:26.928Z,0.85
2022-07-28T10:12:30.847Z,1.20
2022-07-28T10:13:34.147Z,1.05
2022-07-28T10:14:37.290Z,1.08
2022-07-28T10:15:58.055Z,1.20
2022-07-28T10:18:09.421Z,1.15
2022-07-28T10:19:12.583Z,0.90
2022-07-28T10:20:16.613Z,1.02
2022-07-28T10:21:21.651Z,0.82
2022-07-28T10:22:27.839Z,0.93
2022-07-28T10:23:31.452Z,0.93
2022-07-28T10:24:38.006Z,0.93
2022-07-28T10:25:41.972Z,1.08
2022-07-28T10:26:46.914Z,1.10
2022-07-28T10:27:49.581Z,1.10
2022-07-28T10:28:55.219Z,0.77
2022-07-28T10:30:00.729Z,0.98
2022-07-28T10:31:05.085Z,1.00
2022-07-28T10:32:09.655Z,1.00
2022-07-28T10:33:15.366Z,0.88
2022-07-28T10:34:24.465Z,1.00
2022-07-28T10:35:28.820Z,1.05
2022-07-28T10:36:34.342Z,0.90
2022-07-28T10:37:46.661Z,0.93
2022-07-28T10:38:51.691Z,0.90
2022-07-28T10:40:06.515Z,1.10
2022-07-28T10:41:15.042Z,1.05
2022-07-28T10:42:18.758Z,1.10
2022-07-28T10:43:22.157Z,0.80
2022-07-28T10:44:26.065Z,1.20
2022-07-28T10:45:48.125Z,2.00
2022-07-28T10:46:52.951Z,1.75
2022-07-28T10:47:55.297Z,0.95
2022-07-28T10:48:59.766Z,1.00
2022-07-28T10:50:08.752Z,0.82
2022-07-28T10:51:11.933Z,0.75
2022-07-28T10:52:37.748Z,1.02
2022-07-28T10:53:46.727Z,1.10
2022-07-28T10:55:00.060Z,0.82
2022-07-28T10:56:07.555Z,1.00
2022-07-28T10:57:13.762Z,0.77
2022-07-28T10:58:25.468Z,1.02
2022-07-28T10:59:55.837Z,1.10
2022-07-28T11:01:05.950Z,0.80
2022-07-28T11:02:08.829Z,0.90
2022-07-28T11:03:13.947Z,0.90
2022-07-28T11:04:59.141Z,1.00
2022-07-28T11:06:26.569Z,0.88
2022-07-28T11:07:40.699Z,0.90
2022-07-28T11:08:42.955Z,0.93
2022-07-28T11:09:52.189Z,0.80
2022-07-28T11:11:07.479Z,0.80
2022-07-28T11:12:15.351Z,0.77
2022-07-28T11:13:33.216Z,0.93
2022-07-28T11:14:38.135Z,1.00
2022-07-28T11:15:43.407Z,0.93
2022-07-28T11:16:46.579Z,1.00
2022-07-28T11:17:59.731Z,1.20
2022-07-28T11:19:07.786Z,1.02
2022-07-28T11:21:07.969Z,0.80
2022-07-28T11:22:29.176Z,1.00
2022-07-28T11:23:55.031Z,0.90
2022-07-28T11:25:21.887Z,1.13
2022-07-28T11:26:38.211Z,0.98
2022-07-28T11:28:05.899Z,1.35
2022-07-28T11:29:18.898Z,0.90
2022-07-28T11:30:53.381Z,1.10
2022-07-28T11:32:05.360Z,1.42
2022-07-28T11:33:09.281Z,1.15
2022-07-28T11:34:12.997Z,1.48
2022-07-28T11:35:16.464Z,1.13
2022-07-28T11:36:20.220Z,1.13
2022-07-28T11:37:23.388Z,1.20
2022-07-28T11:38:26.410Z,1.00
2022-07-28T11:39:31.902Z,1.08
2022-07-28T11:40:47.248Z,1.00
2022-07-28T11:41:50.413Z,1.00
2022-07-28T11:43:13.537Z,1.25
2022-07-28T11:44:25.299Z,0.90
2022-07-28T11:45:37.587Z,1.10
2022-07-28T11:46:45.691Z,0.90
2022-07-28T11:49:27.663Z,0.80
2022-07-28T11:50:31.145Z,0.85
2022-07-28T11:51:38.788Z,1.02
2022-07-28T11:52:56.709Z,0.90
2022-07-28T11:53:59.010Z,0.68
2022-07-28T11:55:04.554Z,0.90
2022-07-28T11:56:08.713Z,0.98
2022-07-28T11:57:12.125Z,0.85
2022-07-28T11:58:27.678Z,1.10
2022-07-28T11:59:49.717Z,0.85
2022-07-28T12:01:13.282Z,1.00
2022-07-28T12:02:17.544Z,0.80
2022-07-28T12:03:49.719Z,1.00
2022-07-28T12:04:59.835Z,1.20
2022-07-28T12:06:03.169Z,0.80
2022-07-28T12:07:06.770Z,1.00
2022-07-28T12:08:09.938Z,0.90
2022-07-28T12:09:13.465Z,1.10
2022-07-28T12:11:58.491Z,1.00
2022-07-28T12:13:03.882Z,1.10
2022-07-28T12:14:07.837Z,0.82
2022-07-28T12:15:16.089Z,1.05
2022-07-28T12:16:19.420Z,1.10
2022-07-28T12:17:22.201Z,0.90
2022-07-28T12:18:25.502Z,1.00
2022-07-28T12:19:32.588Z,1.10
2022-07-28T12:20:48.824Z,1.13
2022-07-28T12:21:52.881Z,0.95
2022-07-28T12:22:58.135Z,1.05
2022-07-28T12:24:01.793Z,0.95
2022-07-28T12:25:05.960Z,1.30
2022-07-28T12:26:40.705Z,0.80
2022-07-28T12:27:44.735Z,1.25
2022-07-28T12:28:51.636Z,1.20
2022-07-28T12:29:57.466Z,1.15
2022-07-28T12:31:11.384Z,0.80
2022-07-28T12:32:14.683Z,0.90
2022-07-28T12:33:17.915Z,0.98
2022-07-28T12:34:21.216Z,0.90
2022-07-28T12:35:28.879Z,1.08
2022-07-28T12:36:32.042Z,1.00
2022-07-28T12:37:34.280Z,1.13
2022-07-28T12:38:37.532Z,0.80
2022-07-28T12:39:43.242Z,1.00
2022-07-28T12:40:47.170Z,0.98
2022-07-28T12:42:00.426Z,1.00
2022-07-28T12:43:04.048Z,0.98
2022-07-28T12:44:06.254Z,1.15
2022-07-28T12:45:10.981Z,1.08
2022-07-28T12:46:13.183Z,1.10
2022-07-28T12:47:17.792Z,0.90
2022-07-28T12:48:20.303Z,1.00
2022-07-28T12:49:23.587Z,0.80
2022-07-28T12:50:26.738Z,1.10
2022-07-28T12:51:33.456Z,0.90
2022-07-28T12:52:37.257Z,0.95
2022-07-28T12:53:50.835Z,1.10
2022-07-28T12:54:56.569Z,1.15
2022-07-28T12:56:02.663Z,0.85
2022-07-28T12:57:07.440Z,1.00
2022-07-28T12:58:23.595Z,1.20
2022-07-28T12:59:32.933Z,0.80
2022-07-28T13:00:37.354Z,1.20
2022-07-28T13:01:50.620Z,0.82
2022-07-28T13:02:56.127Z,0.90
2022-07-28T13:03:58.594Z,1.02
2022-07-28T13:05:01.862Z,0.90
2022-07-28T13:06:10.740Z,0.80
2022-07-28T13:07:15.757Z,1.30
2022-07-28T13:08:18.951Z,0.80
2022-07-28T13:09:32.864Z,0.90
2022-07-28T13:10:46.027Z,0.90
2022-07-28T13:13:03.970Z,0.88
2022-07-28T13:14:07.247Z,1.05
2022-07-28T13:15:16.920Z,1.00
2022-07-28T13:16:20.321Z,1.20
2022-07-28T13:17:25.587Z,1.73
2022-07-28T13:18:39.407Z,1.70
2022-07-28T13:19:43.610Z,1.30
2022-07-28T13:20:49.809Z,1.52
2022-07-28T13:22:01.589Z,1.20
2022-07-28T13:23:06.108Z,0.90
2022-07-28T13:24:13.180Z,1.08
2022-07-28T13:25:16.920Z,1.10
2022-07-28T13:26:19.096Z,1.52
2022-07-28T13:27:22.306Z,1.38
2022-07-28T13:28:27.987Z,0.95
2022-07-28T13:29:34.541Z,1.00
2022-07-28T13:30:37.901Z,0.80
2022-07-28T13:31:40.760Z,0.88
2022-07-28T13:32:44.086Z,1.00
2022-07-28T13:33:46.301Z,0.98
2022-07-28T13:34:49.717Z,0.70
2022-07-28T13:35:52.936Z,1.10
2022-07-28T13:36:56.992Z,1.02
2022-07-28T13:38:00.157Z,1.00
2022-07-28T13:39:02.350Z,0.95
2022-07-28T13:40:07.128Z,1.10
2022-07-28T13:41:10.334Z,1.00
2022-07-28T13:42:13.149Z,1.10
2022-07-28T13:43:17.106Z,1.13
2022-07-28T13:44:20.816Z,1.00
2022-07-28T13:45:24.135Z,0.98
2022-07-28T13:46:27.087Z,1.17
2022-07-28T13:47:35.516Z,0.90
2022-07-28T13:48:58.115Z,1.00
2022-07-28T13:50:03.232Z,0.90
2022-07-28T13:51:07.206Z,1.13
2022-07-28T13:52:12.827Z,1.00
2022-07-28T13:53:15.860Z,0.98
2022-07-28T13:54:19.874Z,1.00
2022-07-28T13:55:22.758Z,0.98
2022-07-28T13:56:26.387Z,0.93
2022-07-28T13:57:28.632Z,1.05
2022-07-28T13:58:32.004Z,0.77
2022-07-28T13:59:37.765Z,1.00
2022-07-28T14:00:41.109Z,1.10
2022-07-28T14:01:44.558Z,1.05
2022-07-28T14:02:52.273Z,0.90
2022-07-28T14:03:58.004Z,0.95
2022-07-28T14:05:01.669Z,1.00
2022-07-28T14:06:04.988Z,1.17
2022-07-28T14:07:07.319Z,1.13
2022-07-28T14:08:11.319Z,1.08
2022-07-28T14:09:18.163Z,1.20
2022-07-28T14:10:26.618Z,0.90
2022-07-28T14:11:31.244Z,0.85
2022-07-28T14:12:38.707Z,0.90
2022-07-28T14:13:42.196Z,1.00
2022-07-28T14:14:48.284Z,0.98
2022-07-28T14:15:51.969Z,1.10
2022-07-28T14:17:25.719Z,1.10
2022-07-28T14:18:28.076Z,1.00
2022-07-28T14:19:38.810Z,0.88
2022-07-28T14:20:42.840Z,0.75
2022-07-28T14:21:45.929Z,0.90
2022-07-28T14:22:49.094Z,0.95
2022-07-28T14:23:51.418Z,0.90
2022-07-28T14:24:54.590Z,0.88
2022-07-28T14:26:18.374Z,1.08
2022-07-28T14:27:19.885Z,0.90
2022-07-28T14:28:23.429Z,1.10
2022-07-28T14:29:26.017Z,0.80
2022-07-28T14:30:31.193Z,0.90
2022-07-28T14:31:33.624Z,1.20
2022-07-28T14:32:38.923Z,0.90
2022-07-28T14:33:47.392Z,1.10
2022-07-28T14:34:53.449Z,0.70
2022-07-28T14:35:58.261Z,0.77
2022-07-28T14:37:00.405Z,1.00
2022-07-28T14:38:50.274Z,0.98
2022-07-28T14:39:32.035Z,0.90
2022-07-28T14:40:39.451Z,1.20
2022-07-28T14:41:44.379Z,1.00
2022-07-28T14:42:46.550Z,1.00
2022-07-28T14:43:49.875Z,1.00
2022-07-28T14:44:52.071Z,0.88